createdAt,value
2023-03-31T00:02:05.709Z,7.00
2023-03-31T00:05:30.059Z,10.20
2023-03-31T00:11:38.461Z,9.40
2023-03-31T00:15:46.889Z,9.40
2023-03-31T00:17:17.140Z,9.10
2023-03-31T00:20:31.664Z,8.10
2023-03-31T00:24:08.155Z,13.20
2023-03-31T00:26:38.128Z,7.70
2023-03-31T00:28:08.871Z,9.90
2023-03-31T00:33:22.484Z,6.30
2023-03-31T00:35:40.222Z,8.70
2023-03-31T00:40:44.811Z,12.80
2023-03-31T00:44:04.530Z,9.80
2023-03-31T00:45:54.325Z,9.50
2023-03-31T00:48:31.541Z,7.60
2023-03-31T00:50:04.738Z,9.90
2023-03-31T00:51:31.726Z,12.30
2023-03-31T00:53:06.557Z,9.90
2023-03-31T00:55:53.131Z,7.70
2023-03-31T00:58:50.960Z,8.90
2023-03-31T01:03:12.852Z,10.50
2023-03-31T01:04:40.332Z,10.90
2023-03-31T01:14:26.155Z,9.90
2023-03-31T01:18:21.382Z,8.80
2023-03-31T01:19:49.053Z,6.80
2023-03-31T01:22:12.034Z,9.00
2023-03-31T01:23:37.621Z,7.50
2023-03-31T01:28:33.376Z,9.00
2023-03-31T01:30:02.266Z,6.70
2023-03-31T01:32:43.711Z,9.10
2023-03-31T01:34:39.463Z,9.80
2023-03-31T01:37:05.880Z,9.70
2023-03-31T01:39:04.807Z,9.90
2023-03-31T01:42:43.056Z,8.10
2023-03-31T01:47:30.379Z,6.60
2023-03-31T01:53:16.393Z,9.20
2023-03-31T01:56:16.258Z,5.60
2023-03-31T01:57:47.669Z,11.50
2023-03-31T02:01:16.837Z,7.00
2023-03-31T02:03:46.611Z,7.60
2023-03-31T02:05:45.828Z,9.30
2023-03-31T02:12:02.368Z,6.10
2023-03-31T02:13:31.430Z,4.30
2023-03-31T02:17:36.752Z,7.00
2023-03-31T02:19:54.656Z,7.80
2023-03-31T02:24:16.209Z,8.50
2023-03-31T02:30:22.086Z,13.70
2023-03-31T02:31:56.394Z,8.60
2023-03-31T02:33:45.058Z,8.60
2023-03-31T02:38:12.596Z,10.90
2023-03-31T02:39:44.017Z,13.90
2023-03-31T02:41:32.306Z,12.30
2023-03-31T02:43:52.893Z,10.20
2023-03-31T02:45:19.995Z,11.40
2023-03-31T02:50:00.580Z,7.30
2023-03-31T02:54:35.417Z,7.80
2023-03-31T02:57:05.187Z,9.70
2023-03-31T02:59:54.377Z,11.90
2023-03-31T03:04:37.907Z,6.00
2023-03-31T03:08:36.777Z,8.00
2023-03-31T03:11:52.628Z,12.30
2023-03-31T03:13:21.692Z,9.90
2023-03-31T03:14:53.563Z,13.80
2023-03-31T03:16:53.745Z,8.70
2023-03-31T03:25:20.131Z,9.50
2023-03-31T03:27:16.540Z,8.50
2023-03-31T03:29:34.526Z,10.30
2023-03-31T03:31:51.570Z,7.20
2023-03-31T03:34:20.726Z,9.40
2023-03-31T03:40:24.703Z,10.10
2023-03-31T03:45:24.585Z,13.10
2023-03-31T03:47:54.078Z,9.60
2023-03-31T03:52:58.202Z,15.10
2023-03-31T03:55:21.889Z,12.30
2023-03-31T03:58:29.060Z,9.50
2023-03-31T04:01:56.884Z,8.80
2023-03-31T04:06:25.229Z,12.80
2023-03-31T04:17:32.212Z,10.90
2023-03-31T04:19:22.924Z,9.60
2023-03-31T04:24:57.284Z,11.50
2023-03-31T04:29:22.341Z,10.20
2023-03-31T04:33:52.633Z,11.60
2023-03-31T04:35:41.345Z,11.30
2023-03-31T04:39:00.917Z,9.70
2023-03-31T04:40:29.809Z,10.60
2023-03-31T04:41:59.770Z,9.90
2023-03-31T04:43:57.744Z,9.40
2023-03-31T04:47:17.537Z,10.00
2023-03-31T04:49:49.183Z,8.80
2023-03-31T04:52:56.540Z,9.00
2023-03-31T04:57:18.443Z,15.80
2023-03-31T04:59:34.028Z,12.00
2023-03-31T05:01:04.138Z,14.10
2023-03-31T05:07:14.524Z,14.40
2023-03-31T05:08:42.219Z,11.20
2023-03-31T05:10:41.540Z,11.40
2023-03-31T05:12:46.055Z,8.20
2023-03-31T05:14:10.094Z,13.90
2023-03-31T05:17:58.277Z,12.20
2023-03-31T05:22:01.387Z,12.50
2023-03-31T05:25:49.529Z,12.90
2023-03-31T05:27:38.301Z,14.30
2023-03-31T05:30:58.185Z,13.20
2023-03-31T05:32:27.148Z,12.60
2023-03-31T05:40:04.284Z,12.50
2023-03-31T05:41:33.154Z,16.90
2023-03-31T05:44:28.823Z,12.90
2023-03-31T05:46:27.388Z,11.90
2023-03-31T05:52:01.819Z,8.60
2023-03-31T05:54:57.874Z,16.20
2023-03-31T05:56:58.107Z,14.70
2023-03-31T06:00:26.142Z,19.20
2023-03-31T06:03:53.728Z,12.60
2023-03-31T06:09:08.936Z,13.20
2023-03-31T06:11:06.779Z,14.40
2023-03-31T06:12:36.244Z,13.20
2023-03-31T06:14:34.077Z,10.80
2023-03-31T06:16:05.963Z,17.30
2023-03-31T06:17:33.139Z,17.30
2023-03-31T06:21:01.014Z,21.20
2023-03-31T06:22:59.946Z,18.20
2023-03-31T06:24:29.844Z,18.20
2023-03-31T06:25:59.826Z,14.40
2023-03-31T06:28:55.578Z,13.10
2023-03-31T06:30:24.555Z,17.10
2023-03-31T06:42:13.222Z,19.60
2023-03-31T06:44:40.162Z,18.20
2023-03-31T06:47:07.561Z,17.40
2023-03-31T06:49:54.090Z,16.80
2023-03-31T06:51:23.994Z,17.40
2023-03-31T06:53:21.809Z,15.00
2023-03-31T06:58:52.888Z,15.40
2023-03-31T07:00:23.264Z,15.70
2023-03-31T07:03:20.036Z,19.00
2023-03-31T07:05:49.424Z,18.10
2023-03-31T07:08:17.340Z,9.70
2023-03-31T07:17:02.184Z,8.30
2023-03-31T07:19:00.136Z,15.10
2023-03-31T07:23:37.490Z,8.30
2023-03-31T07:27:34.095Z,11.00
2023-03-31T07:32:29.546Z,12.60
2023-03-31T07:38:23.663Z,8.10
2023-03-31T07:43:47.135Z,10.60
2023-03-31T07:47:43.886Z,9.20
2023-03-31T07:49:14.234Z,9.00
2023-03-31T07:53:11.531Z,10.10
2023-03-31T07:56:38.033Z,6.90
2023-03-31T08:00:44.402Z,7.70
2023-03-31T08:02:13.843Z,8.50
2023-03-31T08:04:12.740Z,6.20
2023-03-31T08:06:11.511Z,6.50
2023-03-31T08:09:10.215Z,6.20
2023-03-31T08:14:39.981Z,8.00
2023-03-31T08:16:24.114Z,6.80
2023-03-31T08:23:32.160Z,5.50
2023-03-31T08:25:51.913Z,8.10
2023-03-31T08:32:17.418Z,5.60
2023-03-31T08:34:45.291Z,6.40
2023-03-31T08:36:15.188Z,5.70
2023-03-31T08:38:44.980Z,5.80
2023-03-31T08:42:59.406Z,6.30
2023-03-31T08:44:59.230Z,4.90
2023-03-31T08:49:24.788Z,5.90
2023-03-31T08:50:54.670Z,3.10
2023-03-31T08:52:23.656Z,5.10
2023-03-31T08:53:52.503Z,4.90
2023-03-31T08:57:18.350Z,2.80
2023-03-31T08:59:18.168Z,6.10
2023-03-31T09:02:17.274Z,6.00
2023-03-31T09:04:44.086Z,4.60
2023-03-31T09:06:43.070Z,4.70
2023-03-31T09:09:12.070Z,5.40
2023-03-31T09:12:37.645Z,4.30
2023-03-31T09:16:31.287Z,4.00
2023-03-31T09:19:00.142Z,5.90
2023-03-31T09:21:00.174Z,4.10
2023-03-31T09:22:58.128Z,5.40
2023-03-31T09:25:55.127Z,5.00
2023-03-31T09:30:49.167Z,4.00
2023-03-31T09:33:18.064Z,3.50
2023-03-31T09:41:06.378Z,5.90
2023-03-31T09:43:33.170Z,5.40
2023-03-31T09:47:27.711Z,2.20
2023-03-31T09:55:39.691Z,12.90
2023-03-31T09:58:29.972Z,7.90
2023-03-31T10:00:39.158Z,5.60
2023-03-31T10:04:45.732Z,7.10
2023-03-31T10:06:48.832Z,5.80
2023-03-31T10:08:39.427Z,5.70
2023-03-31T10:11:33.984Z,6.00
2023-03-31T10:14:09.466Z,9.30
2023-03-31T10:18:26.745Z,6.70
2023-03-31T10:21:56.982Z,7.80
2023-03-31T10:23:24.053Z,10.10
2023-03-31T10:26:39.514Z,10.70
2023-03-31T10:28:10.383Z,7.10
2023-03-31T10:30:06.273Z,7.90
2023-03-31T10:33:42.614Z,8.70
2023-03-31T10:35:40.575Z,8.00
2023-03-31T10:37:42.304Z,8.20
2023-03-31T10:39:39.673Z,6.40
2023-03-31T10:42:56.282Z,7.90
2023-03-31T10:49:36.114Z,7.20
2023-03-31T10:51:27.193Z,6.90
2023-03-31T10:52:34.894Z,10.20
2023-03-31T10:55:03.692Z,8.30
2023-03-31T10:59:39.140Z,11.90
2023-03-31T11:04:07.798Z,7.40
2023-03-31T11:07:35.596Z,7.70
2023-03-31T11:08:35.547Z,9.10
2023-03-31T11:09:35.559Z,7.20
2023-03-31T11:11:04.614Z,7.20
2023-03-31T11:13:02.254Z,6.10
2023-03-31T11:15:02.020Z,7.20
2023-03-31T11:16:32.111Z,7.40
2023-03-31T11:23:17.482Z,9.60
2023-03-31T11:26:19.599Z,10.20
2023-03-31T11:28:16.559Z,10.80
2023-03-31T11:30:14.436Z,8.10
2023-03-31T11:33:41.174Z,12.20
2023-03-31T11:35:38.997Z,7.70
2023-03-31T11:38:07.892Z,10.60
2023-03-31T11:40:35.593Z,9.40
2023-03-31T11:42:05.461Z,9.00
2023-03-31T11:43:05.439Z,11.30
2023-03-31T11:44:05.439Z,9.20
2023-03-31T11:45:34.655Z,9.30
2023-03-31T11:47:33.166Z,11.00
2023-03-31T11:50:30.923Z,9.20
2023-03-31T11:54:20.875Z,6.70
2023-03-31T11:58:14.664Z,7.90
2023-03-31T12:03:08.332Z,8.10
2023-03-31T12:04:38.445Z,9.20
2023-03-31T12:06:09.807Z,6.50
2023-03-31T12:09:27.056Z,8.90
2023-03-31T12:11:56.157Z,7.30
2023-03-31T12:14:51.907Z,6.80
2023-03-31T12:15:51.891Z,9.80
2023-03-31T12:16:51.897Z,10.00
2023-03-31T12:18:21.105Z,7.30
2023-03-31T12:19:50.197Z,10.80
2023-03-31T12:21:49.051Z,8.40
2023-03-31T12:23:18.996Z,9.00
2023-03-31T12:24:18.962Z,10.50
2023-03-31T12:25:18.961Z,10.60
2023-03-31T12:28:47.845Z,9.80
2023-03-31T12:33:19.239Z,7.80
2023-03-31T12:34:49.308Z,9.30
2023-03-31T12:45:20.852Z,7.90
2023-03-31T12:48:17.884Z,9.50
2023-03-31T12:49:47.718Z,7.30
2023-03-31T12:51:15.820Z,8.50
2023-03-31T12:54:47.627Z,8.30
2023-03-31T12:56:16.615Z,8.20
2023-03-31T12:57:45.512Z,7.10
2023-03-31T12:59:15.537Z,15.80
2023-03-31T13:05:29.843Z,9.00
2023-03-31T13:08:25.682Z,6.40
2023-03-31T13:14:18.783Z,10.00
2023-03-31T13:16:16.586Z,9.20
2023-03-31T13:18:05.313Z,7.10
2023-03-31T13:31:38.449Z,12.70
2023-03-31T13:33:36.330Z,13.10
2023-03-31T13:35:05.457Z,9.50
2023-03-31T13:38:31.091Z,6.00
2023-03-31T13:40:59.746Z,12.70
2023-03-31T13:49:36.379Z,10.70
2023-03-31T13:51:58.513Z,9.20
2023-03-31T13:55:48.898Z,9.20
2023-03-31T13:57:18.725Z,7.80
2023-03-31T14:01:18.378Z,6.90
2023-03-31T14:02:50.393Z,9.40
2023-03-31T14:06:16.321Z,10.00
2023-03-31T14:08:12.347Z,8.00
2023-03-31T14:09:43.343Z,7.80
2023-03-31T14:11:33.299Z,6.50
2023-03-31T14:13:32.185Z,8.60
2023-03-31T14:16:23.406Z,10.30
2023-03-31T14:24:21.381Z,8.50
2023-03-31T14:26:46.400Z,8.40
2023-03-31T14:30:09.049Z,7.60
2023-03-31T14:35:17.279Z,11.20
2023-03-31T14:38:40.202Z,10.00
2023-03-31T14:41:13.296Z,8.90
2023-03-31T14:43:01.143Z,9.70
2023-03-31T14:46:46.777Z,10.40
2023-03-31T14:48:18.837Z,7.10
2023-03-31T14:51:22.711Z,8.70
2023-03-31T14:53:09.582Z,6.80
2023-03-31T14:55:57.387Z,8.10
2023-03-31T14:57:41.090Z,8.90
2023-03-31T15:01:41.164Z,8.00
2023-03-31T15:04:42.724Z,8.80
2023-03-31T15:06:40.879Z,6.10
2023-03-31T15:12:32.029Z,9.20
2023-03-31T15:15:47.398Z,8.30
2023-03-31T15:18:48.050Z,11.40
2023-03-31T15:20:15.973Z,5.50
2023-03-31T15:27:34.017Z,8.20
2023-03-31T15:28:57.501Z,8.20
2023-03-31T15:31:52.384Z,6.60
2023-03-31T15:33:23.191Z,7.70
2023-03-31T15:37:24.168Z,8.10
2023-03-31T15:39:14.627Z,8.40
2023-03-31T15:41:07.288Z,5.50
2023-03-31T15:45:10.886Z,4.90
2023-03-31T15:47:30.556Z,3.00
2023-03-31T15:49:04.128Z,6.30
2023-03-31T15:53:40.692Z,6.20
2023-03-31T15:55:13.547Z,5.90
2023-03-31T15:58:43.714Z,4.00
2023-03-31T16:00:12.641Z,5.80
2023-03-31T16:01:44.655Z,5.50
2023-03-31T16:03:44.001Z,7.00
2023-03-31T16:07:01.059Z,4.80
2023-03-31T16:10:32.677Z,4.00
2023-03-31T16:12:07.137Z,5.00
2023-03-31T16:15:55.364Z,6.30
2023-03-31T16:18:13.680Z,7.50
2023-03-31T16:19:41.580Z,6.30
2023-03-31T16:21:13.587Z,6.00
2023-03-31T16:26:03.672Z,8.40
2023-03-31T16:27:53.700Z,5.10
2023-03-31T16:30:20.345Z,4.30
2023-03-31T16:33:16.382Z,3.90
2023-03-31T16:36:58.841Z,2.20
2023-03-31T16:40:06.323Z,5.40
2023-03-31T16:42:11.809Z,5.00
2023-03-31T16:43:38.820Z,5.30
2023-03-31T16:45:40.425Z,3.70
2023-03-31T16:49:00.881Z,3.80
2023-03-31T16:54:37.749Z,2.80
2023-03-31T16:56:09.973Z,7.90
2023-03-31T16:58:58.168Z,3.30
2023-03-31T17:01:19.554Z,3.20
2023-03-31T17:03:37.472Z,3.10
2023-03-31T17:09:47.143Z,3.50
2023-03-31T17:11:45.295Z,7.00
2023-03-31T17:14:45.249Z,9.40
2023-03-31T17:17:11.463Z,7.40
2023-03-31T17:23:19.517Z,4.40
2023-03-31T17:30:17.286Z,3.00
2023-03-31T17:33:17.841Z,3.10
2023-03-31T17:36:17.666Z,7.40
2023-03-31T17:40:28.107Z,5.10
2023-03-31T17:41:57.113Z,8.00
2023-03-31T17:44:46.336Z,4.10
2023-03-31T17:47:14.224Z,5.00
2023-03-31T17:49:44.027Z,10.30
2023-03-31T17:55:30.433Z,2.90
2023-03-31T17:57:26.136Z,4.50
2023-03-31T18:00:01.949Z,6.70
2023-03-31T18:04:48.086Z,5.30
2023-03-31T18:10:25.352Z,8.10
2023-03-31T18:13:56.673Z,9.70
2023-03-31T18:15:26.701Z,7.40
2023-03-31T18:18:16.388Z,8.40
2023-03-31T18:20:47.511Z,5.70
2023-03-31T18:24:38.904Z,9.20
2023-03-31T18:26:06.928Z,4.00
2023-03-31T18:30:26.485Z,5.10
2023-03-31T18:37:36.014Z,4.10
2023-03-31T18:48:11.385Z,3.70
2023-03-31T18:55:29.869Z,2.50
2023-03-31T18:56:57.630Z,4.00
2023-03-31T19:01:06.007Z,4.30
2023-03-31T19:05:20.559Z,3.60
2023-03-31T19:07:27.060Z,5.70
2023-03-31T19:11:48.339Z,4.50
2023-03-31T19:17:55.573Z,4.00
2023-03-31T19:21:48.030Z,2.90
2023-03-31T19:23:20.954Z,2.60
2023-03-31T19:25:40.908Z,3.20
2023-03-31T19:27:08.029Z,3.80
2023-03-31T19:31:09.035Z,4.50
2023-03-31T19:34:59.349Z,4.50
2023-03-31T19:39:47.946Z,2.70
2023-03-31T19:41:40.690Z,2.20
2023-03-31T19:46:02.845Z,2.10
2023-03-31T19:47:35.011Z,3.60
2023-03-31T19:52:51.437Z,4.20
2023-03-31T19:54:45.376Z,3.50
2023-03-31T19:57:03.462Z,5.70
2023-03-31T19:59:04.180Z,4.40
2023-03-31T20:00:35.113Z,2.80
2023-03-31T20:02:03.384Z,7.60
2023-03-31T20:03:53.071Z,7.00
2023-03-31T20:09:17.297Z,3.90
2023-03-31T20:10:47.268Z,4.10
2023-03-31T20:13:38.075Z,4.90
2023-03-31T20:15:39.753Z,5.00
2023-03-31T20:22:27.849Z,4.30
2023-03-31T20:27:52.821Z,5.80
2023-03-31T20:30:10.496Z,3.60
2023-03-31T20:33:19.603Z,4.70
2023-03-31T20:34:48.750Z,4.60
2023-03-31T20:36:19.848Z,2.60
2023-03-31T20:37:50.004Z,3.60
2023-03-31T20:39:37.608Z,4.10
2023-03-31T20:41:27.905Z,6.70
2023-03-31T20:46:41.305Z,7.00
2023-03-31T20:50:31.434Z,6.60
2023-03-31T20:52:32.490Z,6.70
2023-03-31T20:56:13.779Z,4.40
2023-03-31T21:02:03.516Z,6.80
2023-03-31T21:03:32.025Z,6.10
2023-03-31T21:11:02.942Z,6.60
2023-03-31T21:12:31.931Z,5.00
2023-03-31T21:18:22.784Z,4.60
2023-03-31T21:20:13.642Z,4.60
2023-03-31T21:22:12.534Z,5.60
2023-03-31T21:25:47.727Z,6.70
2023-03-31T21:27:54.315Z,4.60
2023-03-31T21:29:24.228Z,5.00
2023-03-31T21:31:45.303Z,4.30
2023-03-31T21:34:24.482Z,3.90
2023-03-31T21:36:24.381Z,5.70
2023-03-31T21:38:23.175Z,5.40
2023-03-31T21:40:45.698Z,3.10
2023-03-31T21:43:59.523Z,2.40
2023-03-31T21:46:16.919Z,4.40
2023-03-31T21:50:12.801Z,5.40
2023-03-31T21:51:44.657Z,2.90
2023-03-31T21:53:13.924Z,7.70
2023-03-31T21:56:02.096Z,4.20
2023-03-31T21:59:17.719Z,3.40
2023-03-31T22:02:29.186Z,4.60
2023-03-31T22:09:13.977Z,5.10
2023-03-31T22:12:22.390Z,5.20
2023-03-31T22:13:52.703Z,3.40
2023-03-31T22:19:36.314Z,4.80
2023-03-31T22:21:44.179Z,3.50
2023-03-31T22:24:36.188Z,6.20
2023-03-31T22:26:56.718Z,4.80
2023-03-31T22:28:25.090Z,6.30
2023-03-31T22:31:58.527Z,5.00
2023-03-31T22:34:38.172Z,3.60
2023-03-31T22:36:25.666Z,3.20
2023-03-31T22:43:13.954Z,4.90
2023-03-31T22:45:13.228Z,4.60
2023-03-31T22:50:52.169Z,5.20
2023-03-31T22:53:10.301Z,3.90
2023-03-31T22:55:09.153Z,5.10
2023-03-31T22:58:03.127Z,5.00
2023-03-31T22:59:36.319Z,6.60
2023-03-31T23:01:07.146Z,4.00
2023-03-31T23:07:20.670Z,5.10
2023-03-31T23:11:06.349Z,5.00
2023-03-31T23:12:37.863Z,4.40
2023-03-31T23:15:37.834Z,5.20
2023-03-31T23:19:14.337Z,4.20
2023-03-31T23:24:00.382Z,5.20
2023-03-31T23:25:29.929Z,4.50
2023-03-31T23:33:19.319Z,5.20
2023-03-31T23:35:07.708Z,5.20
2023-03-31T23:37:58.426Z,5.40
2023-03-31T23:39:30.471Z,5.00
2023-03-31T23:41:01.166Z,4.30
2023-03-31T23:42:46.919Z,4.70
2023-03-31T23:45:25.820Z,3.70
2023-03-31T23:46:58.007Z,6.10
2023-03-31T23:52:34.656Z,5.10
2023-03-31T23:54:06.533Z,6.70
2023-03-31T23:56:06.160Z,4.70
2023-03-31T23:57:54.298Z,4.80
2023-03-31T23:59:58.387Z,5.40
